Time,TemperatureF,DewpointF,PressureIn,WindDirection,WindDirectionDegrees,WindSpeedMPH,WindSpeedGustMPH,Humidity,HourlyPrecipIn,Conditions,Clouds,dailyrainin,SolarRadiationWatts/m^2,SoftwareType,DateUTC
2013-02-17 00:05:00,45.2,43.0,30.04,ENE,76,0.0,2.0,91,0.00,,,0.00,0,weatherlink.com 1.10,2013-02-17 08:05:00,
2013-02-17 00:20:00,45.3,43.0,30.04,ENE,76,0.0,1.0,93,0.00,,,0.00,0,weatherlink.com 1.10,2013-02-17 08:20:00,
2013-02-17 00:36:00,44.5,42.0,30.04,ENE,76,1.0,1.0,92,0.00,,,0.00,0,weatherlink.com 1.10,2013-02-17 08:36:00,
2013-02-17 00:50:00,44.0,42.0,30.04,ENE,76,0.0,1.0,93,0.00,,,0.00,0,weatherlink.com 1.10,2013-02-17 08:50:00,
2013-02-17 01:05:00,43.8,42.0,30.04,ENE,76,0.0,1.0,94,0.00,,,0.00,0,weatherlink.com 1.10,2013-02-17 09:05:00,
2013-02-17 01:20:00,43.6,42.0,30.03,ENE,76,1.0,2.0,94,0.00,,,0.00,0,weatherlink.com 1.10,2013-02-17 09:20:00,
2013-02-17 01:35:00,43.1,42.0,30.03,ENE,76,0.0,1.0,94,0.00,,,0.00,0,weatherlink.com 1.10,2013-02-17 09:35:00,
2013-02-17 01:51:00,42.6,41.0,30.03,ENE,76,0.0,1.0,94,0.00,,,0.00,0,weatherlink.com 1.10,2013-02-17 09:51:00,
2013-02-17 02:06:00,41.9,40.0,30.03,ENE,76,0.0,2.0,94,0.00,,,0.00,0,weatherlink.com 1.10,2013-02-17 10:06:00,
2013-02-17 02:21:00,41.6,40.0,30.02,ENE,67,0.0,3.0,94,0.00,,,0.00,0,weatherlink.com 1.10,2013-02-17 10:21:00,
2013-02-17 02:36:00,41.4,40.0,30.02,ENE,78,1.0,3.0,95,0.00,,,0.00,0,weatherlink.com 1.10,2013-02-17 10:36:00,
2013-02-17 02:51:00,40.9,40.0,30.02,ENE,73,0.0,1.0,95,0.01,,,0.01,0,weatherlink.com 1.10,2013-02-17 10:51:00,
2013-02-17 03:06:00,40.0,39.0,30.01,East,90,0.0,3.0,95,0.01,,,0.01,0,weatherlink.com 1.10,2013-02-17 11:06:00,
2013-02-17 03:21:00,38.8,37.0,30.00,East,86,0.0,1.0,94,0.01,,,0.01,0,weatherlink.com 1.10,2013-02-17 11:21:00,
2013-02-17 03:36:00,38.2,37.0,30.01,East,88,0.0,3.0,95,0.01,,,0.01,0,weatherlink.com 1.10,2013-02-17 11:36:00,
2013-02-17 03:51:00,37.7,36.0,30.00,ENE,67,1.0,4.0,95,0.00,,,0.01,0,weatherlink.com 1.10,2013-02-17 11:51:00,
2013-02-17 04:06:00,37.0,36.0,30.00,ENE,65,1.0,4.0,95,0.00,,,0.01,0,weatherlink.com 1.10,2013-02-17 12:06:00,
2013-02-17 04:21:00,36.6,35.0,30.00,ENE,70,0.0,3.0,95,0.00,,,0.01,0,weatherlink.com 1.10,2013-02-17 12:21:00,
2013-02-17 04:36:00,36.4,35.0,30.00,East,87,3.0,3.0,95,0.00,,,0.01,0,weatherlink.com 1.10,2013-02-17 12:36:00,
2013-02-17 04:51:00,36.5,36.0,30.01,East,95,0.0,6.0,96,0.00,,,0.01,0,weatherlink.com 1.10,2013-02-17 12:51:00,
2013-02-17 05:06:00,36.5,36.0,30.00,East,87,0.0,1.0,96,0.00,,,0.01,0,weatherlink.com 1.10,2013-02-17 13:06:00,
2013-02-17 05:21:00,36.1,35.0,30.01,ENE,63,1.0,3.0,96,0.00,,,0.01,0,weatherlink.com 1.10,2013-02-17 13:21:00,
2013-02-17 05:37:00,35.7,34.0,30.01,ENE,63,0.0,1.0,95,0.00,,,0.01,0,weatherlink.com 1.10,2013-02-17 13:37:00,
2013-02-17 05:51:00,35.3,34.0,30.01,East,79,1.0,2.0,96,0.00,,,0.01,0,weatherlink.com 1.10,2013-02-17 13:51:00,
2013-02-17 06:07:00,35.0,34.0,30.01,East,82,0.0,2.0,96,0.00,,,0.01,0,weatherlink.com 1.10,2013-02-17 14:07:00,
2013-02-17 06:21:00,34.6,33.0,30.02,East,86,0.0,2.0,95,0.00,,,0.01,0,weatherlink.com 1.10,2013-02-17 14:21:00,
2013-02-17 06:36:00,34.3,33.0,30.02,East,86,0.0,2.0,96,0.00,,,0.01,0,weatherlink.com 1.10,2013-02-17 14:36:00,
2013-02-17 06:51:00,34.4,33.0,30.02,ENE,70,1.0,4.0,96,0.00,,,0.01,0,weatherlink.com 1.10,2013-02-17 14:51:00,
2013-02-17 07:06:00,34.5,34.0,30.03,ENE,67,0.0,2.0,96,0.00,,,0.01,9,weatherlink.com 1.10,2013-02-17 15:06:00,
2013-02-17 07:21:00,34.8,34.0,30.03,ENE,58,1.0,4.0,96,0.00,,,0.01,19,weatherlink.com 1.10,2013-02-17 15:21:00,
2013-02-17 07:36:00,35.0,34.0,30.03,NW,325,1.0,1.0,96,0.00,,,0.01,67,weatherlink.com 1.10,2013-02-17 15:36:00,
2013-02-17 07:51:00,35.2,34.0,30.03,NW,325,0.0,1.0,96,0.00,,,0.01,63,weatherlink.com 1.10,2013-02-17 15:51:00,
2013-02-17 08:06:00,35.5,35.0,30.03,SE,141,1.0,3.0,96,0.00,,,0.01,107,weatherlink.com 1.10,2013-02-17 16:06:00,
2013-02-17 08:22:00,36.4,35.0,30.03,SE,132,0.0,1.0,96,0.00,,,0.01,165,weatherlink.com 1.10,2013-02-17 16:22:00,
2013-02-17 08:37:00,36.9,36.0,30.04,NE,53,0.0,4.0,96,0.00,,,0.01,220,weatherlink.com 1.10,2013-02-17 16:37:00,
2013-02-17 08:52:00,38.2,38.0,30.05,ENE,63,1.0,3.0,97,0.00,,,0.01,207,weatherlink.com 1.10,2013-02-17 16:52:00,
2013-02-17 09:07:00,39.9,39.0,30.05,NE,35,0.0,3.0,97,0.00,,,0.01,345,weatherlink.com 1.10,2013-02-17 17:07:00,
2013-02-17 09:22:00,42.6,42.0,30.05,ENE,74,0.0,2.0,97,0.00,,,0.01,385,weatherlink.com 1.10,2013-02-17 17:22:00,
2013-02-17 09:37:00,44.6,44.0,30.05,ESE,112,0.0,1.0,97,0.00,,,0.01,425,weatherlink.com 1.10,2013-02-17 17:37:00,
2013-02-17 09:52:00,45.4,45.0,30.05,NNW,334,0.0,2.0,97,0.00,,,0.01,475,weatherlink.com 1.10,2013-02-17 17:52:00,
2013-02-17 10:07:00,46.6,44.0,30.05,NW,323,2.0,4.0,92,0.00,,,0.01,515,weatherlink.com 1.10,2013-02-17 18:07:00,
2013-02-17 10:22:00,48.9,44.0,30.04,NE,53,2.0,5.0,82,0.00,,,0.01,545,weatherlink.com 1.10,2013-02-17 18:22:00,
2013-02-17 10:37:00,50.8,42.0,30.04,NNE,31,4.0,8.0,71,0.00,,,0.01,573,weatherlink.com 1.10,2013-02-17 18:37:00,
2013-02-17 10:52:00,52.0,42.0,30.04,ENE,63,1.0,7.0,69,0.00,,,0.01,596,weatherlink.com 1.10,2013-02-17 18:52:00,
2013-02-17 11:07:00,53.4,44.0,30.04,WSW,246,2.0,4.0,70,0.00,,,0.01,613,weatherlink.com 1.10,2013-02-17 19:07:00,
2013-02-17 11:23:00,54.5,44.0,30.04,NNW,333,0.0,5.0,69,0.00,,,0.01,633,weatherlink.com 1.10,2013-02-17 19:23:00,
2013-02-17 11:38:00,55.0,43.0,30.04,North,360,3.0,5.0,65,0.00,,,0.01,643,weatherlink.com 1.10,2013-02-17 19:38:00,
2013-02-17 11:52:00,55.9,43.0,30.03,ENE,72,5.0,5.0,63,0.00,,,0.01,654,weatherlink.com 1.10,2013-02-17 19:52:00,
2013-02-17 12:07:00,56.9,44.0,30.02,NE,36,2.0,6.0,62,0.00,,,0.01,654,weatherlink.com 1.10,2013-02-17 20:07:00,
2013-02-17 12:22:00,58.1,45.0,30.01,NE,55,4.0,7.0,61,0.00,,,0.01,654,weatherlink.com 1.10,2013-02-17 20:22:00,
2013-02-17 12:37:00,59.6,45.0,30.00,ENE,78,7.0,7.0,59,0.00,,,0.01,650,weatherlink.com 1.10,2013-02-17 20:37:00,
2013-02-17 12:52:00,59.4,45.0,30.00,ENE,64,4.0,7.0,60,0.00,,,0.01,638,weatherlink.com 1.10,2013-02-17 20:52:00,
2013-02-17 13:08:00,60.3,46.0,29.99,NW,313,3.0,6.0,59,0.00,,,0.01,628,weatherlink.com 1.10,2013-02-17 21:08:00,
2013-02-17 13:23:00,61.4,46.0,29.99,NE,36,4.0,6.0,57,0.00,,,0.01,610,weatherlink.com 1.10,2013-02-17 21:23:00,
2013-02-17 13:38:00,61.3,44.0,29.98,NNE,23,2.0,9.0,54,0.00,,,0.01,587,weatherlink.com 1.10,2013-02-17 21:38:00,
2013-02-17 13:53:00,61.4,44.0,29.99,ENE,57,5.0,9.0,54,0.00,,,0.01,499,weatherlink.com 1.10,2013-02-17 21:53:00,
2013-02-17 14:08:00,61.0,44.0,29.98,NNE,12,5.0,10.0,54,0.00,,,0.01,65,weatherlink.com 1.10,2013-02-17 22:08:00,
2013-02-17 14:23:00,60.4,44.0,29.98,North,355,6.0,8.0,55,0.00,,,0.01,54,weatherlink.com 1.10,2013-02-17 22:23:00,
2013-02-17 14:38:00,60.2,43.0,29.98,North,5,2.0,9.0,54,0.00,,,0.01,53,weatherlink.com 1.10,2013-02-17 22:38:00,
2013-02-17 14:53:00,59.9,43.0,29.98,NNE,22,5.0,9.0,55,0.00,,,0.01,51,weatherlink.com 1.10,2013-02-17 22:53:00,
2013-02-17 15:08:00,59.8,43.0,29.98,North,5,4.0,8.0,54,0.00,,,0.01,81,weatherlink.com 1.10,2013-02-17 23:08:00,
2013-02-17 15:23:00,59.2,43.0,29.98,NNE,26,3.0,8.0,55,0.00,,,0.01,320,weatherlink.com 1.10,2013-02-17 23:23:00,
2013-02-17 15:38:00,59.4,43.0,29.97,NNW,333,3.0,7.0,55,0.00,,,0.01,325,weatherlink.com 1.10,2013-02-17 23:38:00,
2013-02-17 15:53:00,59.0,43.0,29.97,NNE,31,1.0,8.0,56,0.00,,,0.01,279,weatherlink.com 1.10,2013-02-17 23:53:00,
2013-02-17 16:08:00,58.6,42.0,29.97,NNW,335,4.0,8.0,55,0.00,,,0.01,234,weatherlink.com 1.10,2013-02-18 00:08:00,
2013-02-17 16:23:00,58.3,41.0,29.97,North,5,1.0,8.0,54,0.00,,,0.01,179,weatherlink.com 1.10,2013-02-18 00:23:00,
2013-02-17 16:38:00,57.8,42.0,29.97,NNE,28,2.0,6.0,56,0.00,,,0.01,33,weatherlink.com 1.10,2013-02-18 00:38:00,
2013-02-17 16:53:00,57.2,42.0,29.97,NNW,331,1.0,8.0,57,0.00,,,0.01,83,weatherlink.com 1.10,2013-02-18 00:53:00,
2013-02-17 17:08:00,56.5,42.0,29.97,North,5,4.0,7.0,58,0.00,,,0.01,44,weatherlink.com 1.10,2013-02-18 01:08:00,
2013-02-17 17:23:00,55.3,42.0,29.97,NW,315,2.0,6.0,62,0.00,,,0.01,21,weatherlink.com 1.10,2013-02-18 01:23:00,
2013-02-17 17:38:00,54.8,44.0,29.97,NNW,331,0.0,1.0,66,0.00,,,0.01,12,weatherlink.com 1.10,2013-02-18 01:38:00,
2013-02-17 17:53:00,53.0,43.0,29.97,WNW,293,1.0,4.0,70,0.00,,,0.01,0,weatherlink.com 1.10,2013-02-18 01:53:00,
2013-02-17 18:08:00,52.0,43.0,29.97,NW,314,0.0,2.0,72,0.00,,,0.01,0,weatherlink.com 1.10,2013-02-18 02:08:00,
2013-02-17 18:23:00,51.4,43.0,29.97,NW,319,0.0,2.0,73,0.00,,,0.01,0,weatherlink.com 1.10,2013-02-18 02:23:00,
2013-02-17 18:38:00,50.5,43.0,29.97,ENE,70,1.0,3.0,75,0.00,,,0.01,0,weatherlink.com 1.10,2013-02-18 02:38:00,
2013-02-17 18:53:00,49.9,43.0,29.98,NE,40,3.0,4.0,77,0.00,,,0.01,0,weatherlink.com 1.10,2013-02-18 02:53:00,
2013-02-17 19:08:00,49.6,43.0,29.98,North,5,1.0,2.0,78,0.00,,,0.01,0,weatherlink.com 1.10,2013-02-18 03:08:00,
2013-02-17 19:23:00,47.6,41.0,29.98,NNE,17,0.0,1.0,79,0.00,,,0.01,0,weatherlink.com 1.10,2013-02-18 03:23:00,
2013-02-17 19:38:00,46.6,41.0,29.98,NNE,17,0.0,0.0,82,0.00,,,0.01,0,weatherlink.com 1.10,2013-02-18 03:38:00,
2013-02-17 19:53:00,45.9,40.0,29.98,NNE,17,0.0,0.0,81,0.00,,,0.01,0,weatherlink.com 1.10,2013-02-18 03:53:00,
2013-02-17 20:08:00,45.5,40.0,29.98,NNE,17,0.0,0.0,82,0.00,,,0.01,0,weatherlink.com 1.10,2013-02-18 04:08:00,
2013-02-17 20:24:00,45.3,40.0,29.98,NNE,17,0.0,0.0,82,0.00,,,0.01,0,weatherlink.com 1.10,2013-02-18 04:24:00,
2013-02-17 20:38:00,44.2,39.0,29.98,NNE,17,0.0,0.0,83,0.00,,,0.01,0,weatherlink.com 1.10,2013-02-18 04:38:00,
2013-02-17 20:53:00,43.2,38.0,29.98,NNE,17,0.0,1.0,82,0.00,,,0.01,0,weatherlink.com 1.10,2013-02-18 04:53:00,
2013-02-17 21:08:00,42.2,38.0,29.99,NNE,17,0.0,1.0,84,0.00,,,0.01,0,weatherlink.com 1.10,2013-02-18 05:08:00,
2013-02-17 21:23:00,41.6,38.0,29.99,NNE,17,0.0,1.0,86,0.00,,,0.01,0,weatherlink.com 1.10,2013-02-18 05:23:00,
2013-02-17 21:38:00,41.5,38.0,29.99,NNE,17,0.0,0.0,87,0.00,,,0.01,0,weatherlink.com 1.10,2013-02-18 05:38:00,
2013-02-17 21:53:00,41.0,38.0,30.00,NNE,17,0.0,2.0,88,0.00,,,0.01,0,weatherlink.com 1.10,2013-02-18 05:53:00,
2013-02-17 22:08:00,40.4,38.0,30.00,NNE,17,0.0,0.0,89,0.00,,,0.01,0,weatherlink.com 1.10,2013-02-18 06:08:00,
2013-02-17 22:23:00,40.0,37.0,29.99,NNE,17,0.0,1.0,89,0.00,,,0.01,0,weatherlink.com 1.10,2013-02-18 06:23:00,
2013-02-17 22:38:00,39.4,37.0,29.99,NNE,17,0.0,0.0,90,0.00,,,0.01,0,weatherlink.com 1.10,2013-02-18 06:38:00,
2013-02-17 22:53:00,39.3,37.0,29.99,NNE,17,0.0,0.0,91,0.00,,,0.01,0,weatherlink.com 1.10,2013-02-18 06:53:00,
2013-02-17 23:08:00,39.5,37.0,29.99,NNE,17,0.0,1.0,91,0.00,,,0.01,0,weatherlink.com 1.10,2013-02-18 07:08:00,
2013-02-17 23:23:00,39.0,37.0,30.00,NNE,17,0.0,1.0,91,0.00,,,0.01,0,weatherlink.com 1.10,2013-02-18 07:23:00,
2013-02-17 23:38:00,38.5,36.0,29.99,NNE,17,0.0,0.0,91,0.00,,,0.01,0,weatherlink.com 1.10,2013-02-18 07:38:00,
2013-02-17 23:53:00,38.4,36.0,29.99,NNE,17,0.0,1.0,92,0.00,,,0.01,0,weatherlink.com 1.10,2013-02-18 07:53:00,